Terminal Aerodrome Forecast
Issued by NWS Milwaukee/Sullivan, WI

Home | Current Version | Previous Version | Text Only | Print | Product List | Glossary On
Versions: 1 2 3 4 5 6 7 8 9 10 11 12 13 14 15 16 17 18 19 20 21 22 23 24 25 26 27 28 29 30 31
000
FTUS43 KMKX 242017 AAA
TAFMKE
TAF AMD
KMKE 242017Z 2420/2524 02013G23KT P6SM SCT060 BKN080
     FM250200 03010G18KT 4SM -SHRA BR OVC020
     FM250600 03010G18KT 3SM -SHRA BR OVC008
     FM250900 03010KT 3SM -SHRA BR OVC003
     FM251500 06011G20KT 1SM -SHRA BR OVC003=

USA.gov is the U.S. government's official web portal to all federal, state and local government web resources and services.